Time;durP1;ratioP1;P1;durP2;ratioP2;P2;SDS_P1;SDS_P2;PMS_P1;PMS_P2;Temp;Humidity;BMP_temperature;BMP_pressure;BME280_temperature;BME280_humidity;BME280_pressure;Samples;Min_cycle;Max_cycle;Signal;HPM_P1;HPM_P2
2021/03/04 00:05:03;;;;;;;57.50;33.70;;;;;;;1.58;74.17;99681.58;510917;1099;114687;-63
2021/03/04 00:15:10;;;;;;;43.83;27.43;;;;;;;1.62;74.31;99670.25;510778;1100;113957;-64
2021/03/04 00:25:25;;;;;;;40.37;26.43;;;;;;;1.61;74.19;99654.75;510519;1099;113908;-63
2021/03/04 00:35:30;;;;;;;46.27;26.53;;;;;;;1.43;74.31;99649.17;510828;1099;114590;-63
2021/03/04 00:45:35;;;;;;;;;;;;;;;1.28;74.81;99639.22;510995;1099;114136;-64
2021/03/04 00:55:43;;;;;;;49.55;30.55;;;;;;;1.07;74.81;99612.99;511057;1102;101199;-64
2021/03/04 01:05:47;;;;;;;45.60;29.20;;;;;;;1.03;76.03;99601.88;510824;1099;113956;-64
2021/03/04 01:15:52;;;;;;;51.35;30.20;;;;;;;1.31;75.48;99583.05;510816;1099;114124;-63
2021/03/04 01:26:03;;;;;;;48.43;27.87;;;;;;;1.51;75.85;99559.26;510771;1099;114697;-62
2021/03/04 01:36:08;;;;;;;46.05;27.60;;;;;;;1.61;76.42;99546.90;510775;1098;113934;-64
2021/03/04 01:46:13;;;;;;;45.70;26.63;;;;;;;1.57;76.24;99536.67;510919;1100;114388;-62
2021/03/04 01:56:26;;;;;;;37.47;23.43;;;;;;;1.43;76.01;99505.99;510800;1098;114389;-65
2021/03/04 02:06:39;;;;;;;42.35;26.15;;;;;;;1.31;76.88;99497.67;510716;1100;115093;-65
2021/03/04 02:16:47;;;;;;;37.90;24.13;;;;;;;1.28;77.17;99482.25;511054;1098;114194;-63
2021/03/04 02:27:01;;;;;;;40.80;25.53;;;;;;;1.29;76.42;99468.42;510939;1100;114867;-64
2021/03/04 02:37:05;;;;;;;40.87;22.53;;;;;;;1.40;77.28;99461.20;510988;1099;113952;-64
2021/03/04 02:47:12;;;;;;;38.33;23.20;;;;;;;1.54;77.05;99437.52;511020;1099;114244;-64
2021/03/04 02:57:20;;;;;;;44.50;26.43;;;;;;;1.66;77.60;99444.06;511026;1099;115528;-63
2021/03/04 03:07:26;;;;;;;36.90;23.63;;;;;;;1.72;77.01;99427.50;511174;1099;114374;-64
2021/03/04 03:17:30;;;;;;;38.80;23.73;;;;;;;1.82;76.91;99433.27;511218;1099;114180;-63
2021/03/04 03:27:37;;;;;;;46.15;25.57;;;;;;;1.92;76.87;99420.88;510922;1101;114039;-64
2021/03/04 03:37:42;;;;;;;39.67;25.80;;;;;;;1.96;76.92;99407.78;510957;1099;114668;-65
2021/03/04 03:47:47;;;;;;;42.17;27.70;;;;;;;1.88;77.53;99389.04;510971;1102;114455;-64
2021/03/04 03:58:01;;;;;;;36.90;23.83;;;;;;;1.71;77.51;99374.03;510746;1100;113894;-64
2021/03/04 04:08:09;;;;;;;42.23;26.40;;;;;;;1.65;77.46;99356.13;511011;1098;114091;-64
2021/03/04 04:18:13;;;;;;;39.87;24.23;;;;;;;1.68;77.83;99361.20;510893;1100;114057;-64
2021/03/04 04:28:28;;;;;;;42.07;25.37;;;;;;;1.66;77.74;99353.47;510846;1099;113965;-64
2021/03/04 04:38:32;;;;;;;42.43;25.27;;;;;;;1.60;78.15;99343.32;510760;1102;114035;-64
2021/03/04 04:48:38;;;;;;;37.55;22.90;;;;;;;1.52;77.81;99333.21;510733;1099;113952;-64
2021/03/04 04:58:48;;;;;;;39.17;23.30;;;;;;;1.56;78.28;99322.76;510874;1101;114023;-64
2021/03/04 05:08:52;;;;;;;36.90;22.83;;;;;;;1.72;78.33;99313.59;511135;1102;113914;-64
2021/03/04 05:18:56;;;;;;;38.40;23.00;;;;;;;1.81;78.32;99299.53;511025;1099;116015;-63
2021/03/04 05:29:08;;;;;;;30.30;20.53;;;;;;;1.76;78.33;99304.86;510884;1099;115391;-65
2021/03/04 05:39:15;;;;;;;37.28;21.85;;;;;;;2.07;78.51;99316.77;510999;1099;114403;-65
2021/03/04 05:49:24;;;;;;;34.73;21.50;;;;;;;2.63;78.77;99307.09;510915;1100;114915;-65
2021/03/04 05:59:36;;;;;;;39.17;23.13;;;;;;;2.97;77.87;99307.63;510961;1099;115510;-67
2021/03/04 06:09:40;;;;;;;43.13;25.47;;;;;;;3.35;77.83;99305.31;510932;1100;114026;-64
2021/03/04 06:19:54;;;;;;;38.10;24.13;;;;;;;3.74;77.46;99296.00;510864;1099;114852;-63
2021/03/04 06:30:00;;;;;;;38.05;23.40;;;;;;;4.30;77.01;99298.90;510790;1099;114101;-64
2021/03/04 06:40:08;;;;;;;34.73;22.80;;;;;;;4.49;76.17;99321.48;510865;1099;115103;-64
2021/03/04 06:50:23;;;;;;;37.20;22.00;;;;;;;4.56;76.53;99317.72;510958;1099;114659;-63
2021/03/04 07:00:28;;;;;;;39.60;26.40;;;;;;;4.70;76.75;99317.13;511014;1099;113888;-63
2021/03/04 07:10:33;;;;;;;37.07;27.40;;;;;;;4.76;76.23;99321.20;511202;1101;114670;-64
2021/03/04 07:20:37;;;;;;;43.83;26.93;;;;;;;4.69;76.50;99327.58;511079;1099;114403;-67
2021/03/04 07:30:46;;;;;;;42.70;25.90;;;;;;;4.74;76.75;99328.23;510550;1101;114224;-63
2021/03/04 07:41:05;;;;;;;49.37;31.67;;;;;;;4.77;76.42;99330.70;510962;1098;114197;-63
2021/03/04 07:51:08;;;;;;;58.53;32.97;;;;;;;4.80;76.41;99335.75;510830;1101;116134;-64
2021/03/04 08:01:13;;;;;;;55.73;34.83;;;;;;;4.90;76.77;99330.97;511175;1099;113895;-64
2021/03/04 08:11:28;;;;;;;57.40;35.05;;;;;;;4.93;76.10;99335.20;510065;1099;115084;-68
2021/03/04 08:21:39;;;;;;;50.10;34.10;;;;;;;4.89;76.16;99342.30;503581;1099;10001174;-71
2021/03/04 08:31:47;;;;;;;56.87;34.97;;;;;;;5.01;76.49;99328.73;510802;1102;114243;-74
2021/03/04 08:42:03;;;;;;;53.90;35.13;;;;;;;4.95;76.53;99323.83;510656;1099;114344;-70
2021/03/04 08:52:10;;;;;;;56.00;37.33;;;;;;;4.84;76.47;99315.66;512740;1099;114269;-75
2021/03/04 09:02:15;;;;;;;60.50;39.17;;;;;;;4.77;76.78;99322.89;510869;1099;114973;-65
2021/03/04 09:12:23;;;;;;;58.07;36.87;;;;;;;4.83;76.88;99325.20;510861;1100;114161;-70
2021/03/04 09:22:30;;;;;;;56.87;37.57;;;;;;;4.96;76.36;99325.52;510502;1099;114238;-69
2021/03/04 09:32:38;;;;;;;63.40;39.27;;;;;;;5.13;75.58;99324.74;510922;1099;113970;-66
2021/03/04 09:42:43;;;;;;;55.67;35.88;;;;;;;5.18;75.76;99332.34;502558;1099;10000955;-74
2021/03/04 09:52:59;;;;;;;62.10;37.43;;;;;;;5.21;75.44;99326.98;511450;1102;115613;-74
2021/03/04 10:03:09;;;;;;;55.67;34.53;;;;;;;5.41;75.28;99338.25;513019;1099;114375;-75
2021/03/04 10:13:14;;;;;;;58.57;38.00;;;;;;;5.54;74.65;99328.94;511563;1099;114169;-75
2021/03/04 10:23:18;;;;;;;57.73;36.20;;;;;;;5.54;74.58;99321.13;510692;1102;114755;-75
2021/03/04 10:33:22;;;;;;;50.80;32.35;;;;;;;5.97;74.17;99312.14;510448;1099;113908;-75
2021/03/04 10:43:27;;;;;;;52.45;32.65;;;;;;;6.30;73.25;99314.84;510408;1100;115293;-75
2021/03/04 10:53:31;;;;;;;50.60;32.50;;;;;;;6.63;73.10;99302.73;510596;1102;114477;-75
2021/03/04 11:03:34;;;;;;;40.97;27.53;;;;;;;6.87;71.70;99298.00;510300;1099;115082;-75
2021/03/04 11:13:39;;;;;;;43.20;26.83;;;;;;;6.97;69.76;99300.13;510733;1102;115325;-74
2021/03/04 11:23:43;;;;;;;38.57;26.17;;;;;;;6.89;69.00;99291.85;511362;1099;114628;-75
2021/03/04 11:33:47;;;;;;;38.60;26.87;;;;;;;6.63;68.27;99279.26;510588;1102;114565;-74
2021/03/04 11:43:53;;;;;;;40.23;25.83;;;;;;;7.03;69.07;99263.23;510240;1099;114164;-74
2021/03/04 11:53:57;;;;;;;40.03;25.33;;;;;;;7.30;68.15;99252.20;510715;1099;115330;-74
2021/03/04 12:04:03;;;;;;;40.33;27.27;;;;;;;6.97;67.08;99238.30;511098;1099;114699;-75
2021/03/04 12:14:07;;;;;;;41.93;26.97;;;;;;;6.44;67.61;99238.51;510549;1102;114677;-74
2021/03/04 12:24:12;;;;;;;46.00;29.97;;;;;;;6.29;67.83;99234.08;510337;1099;115933;-72
2021/03/04 12:34:21;;;;;;;47.37;29.23;;;;;;;6.05;68.96;99241.41;510593;1102;114628;-72
2021/03/04 12:44:25;;;;;;;48.27;29.20;;;;;;;5.69;69.53;99240.53;510663;1098;115623;-76
2021/03/04 12:54:29;;;;;;;39.90;28.33;;;;;;;5.17;69.36;99249.97;510427;1099;114812;-75
2021/03/04 13:04:41;;;;;;;43.73;28.07;;;;;;;4.82;69.81;99247.25;510540;1098;115122;-74
2021/03/04 13:14:45;;;;;;;32.47;22.70;;;;;;;4.48;70.97;99245.25;510579;1101;115500;-74
2021/03/04 13:24:49;;;;;;;37.53;25.57;;;;;;;4.27;70.67;99265.25;510498;1098;114372;-74
2021/03/04 13:35:03;;;;;;;35.53;23.40;;;;;;;4.19;70.62;99254.33;510626;1099;114926;-73
2021/03/04 13:45:09;;;;;;;41.23;27.07;;;;;;;4.10;70.49;99252.98;510988;1099;114928;-74
2021/03/04 13:55:13;;;;;;;42.23;24.37;;;;;;;3.84;70.74;99256.67;510857;1099;114291;-74
2021/03/04 14:05:23;;;;;;;40.13;23.73;;;;;;;3.67;70.69;99258.19;510753;1101;114288;-73
2021/03/04 14:15:28;;;;;;;43.30;24.30;;;;;;;3.63;71.25;99269.63;510579;1099;115394;-74
2021/03/04 14:25:32;;;;;;;36.17;23.13;;;;;;;3.54;71.41;99259.60;510455;1099;115598;-71
2021/03/04 14:35:47;;;;;;;35.27;22.20;;;;;;;3.30;70.95;99263.13;510713;1099;115652;-71
2021/03/04 14:45:53;;;;;;;32.23;20.00;;;;;;;3.08;71.48;99253.58;510614;1102;115578;-73
2021/03/04 14:55:57;;;;;;;34.23;20.17;;;;;;;3.19;71.46;99244.54;510664;1099;114093;-71
2021/03/04 15:06:13;;;;;;;33.10;20.95;;;;;;;3.23;71.56;99230.53;512125;1099;114034;-64
2021/03/04 15:16:17;;;;;;;37.63;23.27;;;;;;;3.13;71.42;99230.06;510771;1099;114360;-67
2021/03/04 15:26:25;;;;;;;33.25;20.15;;;;;;;2.85;71.27;99238.89;510449;1099;114879;-68
2021/03/04 15:36:39;;;;;;;30.50;18.63;;;;;;;2.69;71.91;99248.16;510731;1099;114598;-68
2021/03/04 15:46:44;;;;;;;31.30;18.40;;;;;;;2.50;71.53;99243.63;511450;1100;114197;-69
2021/03/04 15:56:48;;;;;;;30.73;17.70;;;;;;;2.31;72.54;99246.91;511878;1099;114474;-69
2021/03/04 16:07:04;;;;;;;30.67;16.37;;;;;;;2.27;72.50;99247.06;511046;1102;114073;-67
2021/03/04 16:17:07;;;;;;;28.03;18.13;;;;;;;2.14;73.19;99250.09;511250;1099;114270;-68
2021/03/04 16:27:12;;;;;;;56.17;30.97;;;;;;;2.09;73.33;99254.56;510975;1099;114009;-69
2021/03/04 16:37:20;;;;;;;32.07;19.33;;;;;;;2.04;73.10;99264.25;511046;1100;114682;-69
2021/03/04 16:47:28;;;;;;;32.63;18.97;;;;;;;1.85;73.04;99269.18;511264;1099;114771;-69
2021/03/04 16:57:33;;;;;;;23.77;14.23;;;;;;;1.70;73.50;99273.15;511210;1100;114774;-69
2021/03/04 17:07:46;;;;;;;31.23;17.67;;;;;;;1.59;73.22;99276.92;510757;1099;116486;-70
2021/03/04 17:17:50;;;;;;;21.17;12.23;;;;;;;1.46;72.95;99275.63;511470;1099;114879;-69
2021/03/04 17:27:57;;;;;;;14.90;9.40;;;;;;;1.34;72.73;99271.67;511154;1099;114101;-68
2021/03/04 17:38:06;;;;;;;14.03;8.70;;;;;;;1.26;72.65;99277.92;510954;1099;114264;-68
2021/03/04 17:48:12;;;;;;;14.80;8.55;;;;;;;1.20;72.66;99270.36;511391;1099;115235;-67
2021/03/04 17:58:15;;;;;;;13.00;8.67;;;;;;;1.15;72.32;99276.57;511220;1098;115051;-67
2021/03/04 18:08:29;;;;;;;12.97;9.00;;;;;;;1.10;72.48;99272.39;511197;1099;114841;-65
2021/03/04 18:18:34;;;;;;;18.80;10.50;;;;;;;1.07;72.84;99264.70;511366;1099;114815;-67
2021/03/04 18:28:39;;;;;;;16.47;9.73;;;;;;;1.04;73.17;99253.60;511258;1099;114257;-66
2021/03/04 18:38:50;;;;;;;15.40;9.67;;;;;;;1.03;72.52;99252.77;511195;1099;114083;-65
2021/03/04 18:48:54;;;;;;;11.67;8.03;;;;;;;1.03;72.18;99245.02;511023;1099;114952;-63
2021/03/04 18:58:59;;;;;;;13.43;8.23;;;;;;;0.98;72.40;99254.63;511296;1099;114981;-67
2021/03/04 19:09:16;;;;;;;16.37;11.00;;;;;;;1.00;71.96;99254.59;501902;1100;10001039;-61
2021/03/04 19:19:20;;;;;;;15.27;7.97;;;;;;;1.03;72.53;99257.08;510477;1099;115679;-65
2021/03/04 19:29:24;;;;;;;17.45;10.00;;;;;;;1.03;72.48;99268.29;510476;1099;113899;-63
2021/03/04 19:39:38;;;;;;;17.50;9.57;;;;;;;1.03;72.60;99263.12;510739;1098;114179;-63
2021/03/04 19:49:43;;;;;;;16.95;10.75;;;;;;;1.00;72.63;99260.63;510491;1099;115353;-64
2021/03/04 19:59:48;;;;;;;17.67;9.90;;;;;;;0.96;72.59;99261.59;510527;1099;114755;-63
2021/03/04 20:10:00;;;;;;;16.65;11.30;;;;;;;0.91;73.18;99253.97;510710;1099;114906;-63
2021/03/04 20:20:06;;;;;;;16.30;10.20;;;;;;;0.89;72.97;99257.52;510588;1100;114776;-63
2021/03/04 20:30:13;;;;;;;29.98;10.15;;;;;;;0.89;73.15;99262.69;510789;1099;115813;-64
2021/03/04 20:40:29;;;;;;;18.87;11.67;;;;;;;0.84;73.06;99263.65;510475;1102;114092;-68
2021/03/04 20:50:32;;;;;;;17.50;11.50;;;;;;;0.85;74.39;99256.76;510505;1099;115068;-65
2021/03/04 21:00:37;;;;;;;21.20;11.97;;;;;;;0.82;74.03;99262.02;510797;1100;114141;-65
2021/03/04 21:10:50;;;;;;;17.65;10.50;;;;;;;0.87;73.72;99277.41;510254;1099;114177;-65
2021/03/04 21:20:54;;;;;;;20.37;12.13;;;;;;;0.87;74.49;99279.98;510825;1098;114435;-74
2021/03/04 21:30:58;;;;;;;21.20;12.73;;;;;;;0.85;74.87;99287.78;510818;1101;114080;-68
2021/03/04 21:41:11;;;;;;;20.80;12.87;;;;;;;0.86;75.18;99286.02;510274;1099;114161;-73
2021/03/04 21:51:17;;;;;;;17.83;13.13;;;;;;;0.80;75.71;99285.33;510502;1102;114082;-71
2021/03/04 22:01:21;;;;;;;26.27;15.30;;;;;;;0.79;76.41;99291.39;510730;1099;115783;-66
2021/03/04 22:11:35;;;;;;;25.93;14.90;;;;;;;0.75;76.37;99301.85;510567;1099;115214;-61
2021/03/04 22:21:42;;;;;;;22.23;13.37;;;;;;;0.76;76.27;99306.13;516769;1100;114507;-73
2021/03/04 22:31:44;;;;;;;;;;;;;;;0.75;76.15;99288.93;510997;1099;114059;-72
2021/03/04 22:41:57;;;;;;;33.67;20.40;;;;;;;0.68;77.33;99281.34;511222;1100;101204;-61
2021/03/04 22:52:01;;;;;;;39.30;21.60;;;;;;;0.62;77.22;99288.41;510326;1099;114152;-65
2021/03/04 23:02:06;;;;;;;26.90;16.77;;;;;;;0.60;77.94;99285.03;510710;1101;114191;-66
2021/03/04 23:12:19;;;;;;;31.40;19.10;;;;;;;0.52;78.67;99293.87;510705;1098;114241;-64
2021/03/04 23:22:24;;;;;;;27.43;17.37;;;;;;;0.54;78.64;99298.97;510725;1099;114319;-65
2021/03/04 23:32:28;;;;;;;27.77;17.47;;;;;;;0.58;79.06;99304.91;511077;1099;114106;-64
2021/03/04 23:42:42;;;;;;;25.70;16.33;;;;;;;0.63;78.84;99313.37;510589;1099;115868;-63
2021/03/04 23:52:47;;;;;;;25.70;15.70;;;;;;;0.55;79.43;99322.20;510481;1099;116206;-64
